sensor_id;sensor_type;location;lat;lon;timestamp;P1;durP1;ratioP1;P2;durP2;ratioP2
75340;SDS011;64931;47.562;18.920;2023-07-30T00:01:34;3.30;;;1.60;;
75340;SDS011;64931;47.562;18.920;2023-07-30T00:04:00;3.30;;;1.60;;
75340;SDS011;64931;47.562;18.920;2023-07-30T00:06:25;4.10;;;1.80;;
75340;SDS011;64931;47.562;18.920;2023-07-30T00:08:51;4.10;;;1.80;;
75340;SDS011;64931;47.562;18.920;2023-07-30T00:11:16;3.30;;;1.70;;
75340;SDS011;64931;47.562;18.920;2023-07-30T00:13:42;4.00;;;1.60;;
75340;SDS011;64931;47.562;18.920;2023-07-30T00:16:07;4.90;;;1.80;;
75340;SDS011;64931;47.562;18.920;2023-07-30T00:18:33;3.10;;;1.40;;
75340;SDS011;64931;47.562;18.920;2023-07-30T00:20:59;3.10;;;1.60;;
75340;SDS011;64931;47.562;18.920;2023-07-30T00:23:24;4.10;;;1.70;;
75340;SDS011;64931;47.562;18.920;2023-07-30T00:25:50;4.30;;;1.90;;
75340;SDS011;64931;47.562;18.920;2023-07-30T00:28:16;5.60;;;1.80;;
75340;SDS011;64931;47.562;18.920;2023-07-30T00:30:41;4.40;;;1.80;;
75340;SDS011;64931;47.562;18.920;2023-07-30T00:33:07;3.70;;;1.70;;
75340;SDS011;64931;47.562;18.920;2023-07-30T00:35:32;3.60;;;1.80;;
75340;SDS011;64931;47.562;18.920;2023-07-30T00:37:57;3.80;;;1.70;;
75340;SDS011;64931;47.562;18.920;2023-07-30T00:40:23;3.80;;;1.70;;
75340;SDS011;64931;47.562;18.920;2023-07-30T00:42:48;3.00;;;1.70;;
75340;SDS011;64931;47.562;18.920;2023-07-30T00:45:13;4.30;;;2.10;;
75340;SDS011;64931;47.562;18.920;2023-07-30T00:47:39;3.10;;;1.70;;
75340;SDS011;64931;47.562;18.920;2023-07-30T00:50:06;3.50;;;1.70;;
75340;SDS011;64931;47.562;18.920;2023-07-30T00:52:32;5.40;;;1.80;;
75340;SDS011;64931;47.562;18.920;2023-07-30T00:54:59;6.60;;;2.10;;
75340;SDS011;64931;47.562;18.920;2023-07-30T00:57:27;3.90;;;1.90;;
75340;SDS011;64931;47.562;18.920;2023-07-30T00:59:53;3.30;;;1.80;;
75340;SDS011;64931;47.562;18.920;2023-07-30T01:02:19;3.30;;;1.90;;
75340;SDS011;64931;47.562;18.920;2023-07-30T01:04:44;3.30;;;1.80;;
75340;SDS011;64931;47.562;18.920;2023-07-30T01:07:09;4.20;;;1.80;;
75340;SDS011;64931;47.562;18.920;2023-07-30T01:09:35;3.50;;;1.90;;
75340;SDS011;64931;47.562;18.920;2023-07-30T01:12:00;4.40;;;1.60;;
75340;SDS011;64931;47.562;18.920;2023-07-30T01:14:27;4.30;;;1.90;;
75340;SDS011;64931;47.562;18.920;2023-07-30T01:16:52;4.80;;;2.00;;
75340;SDS011;64931;47.562;18.920;2023-07-30T01:19:18;3.30;;;1.70;;
75340;SDS011;64931;47.562;18.920;2023-07-30T01:21:44;4.20;;;1.80;;
75340;SDS011;64931;47.562;18.920;2023-07-30T01:24:09;4.90;;;2.00;;
75340;SDS011;64931;47.562;18.920;2023-07-30T01:26:51;4.20;;;1.90;;
75340;SDS011;64931;47.562;18.920;2023-07-30T01:29:27;4.00;;;1.80;;
75340;SDS011;64931;47.562;18.920;2023-07-30T01:31:55;4.80;;;2.00;;
75340;SDS011;64931;47.562;18.920;2023-07-30T01:34:25;3.20;;;1.90;;
75340;SDS011;64931;47.562;18.920;2023-07-30T01:36:53;4.10;;;2.10;;
75340;SDS011;64931;47.562;18.920;2023-07-30T01:39:18;3.00;;;1.70;;
75340;SDS011;64931;47.562;18.920;2023-07-30T01:41:44;4.50;;;2.10;;
75340;SDS011;64931;47.562;18.920;2023-07-30T01:44:09;3.90;;;2.10;;
75340;SDS011;64931;47.562;18.920;2023-07-30T01:46:35;3.70;;;1.80;;
75340;SDS011;64931;47.562;18.920;2023-07-30T01:49:00;3.60;;;1.90;;
75340;SDS011;64931;47.562;18.920;2023-07-30T01:51:25;3.10;;;1.90;;
75340;SDS011;64931;47.562;18.920;2023-07-30T01:53:51;3.10;;;1.70;;
75340;SDS011;64931;47.562;18.920;2023-07-30T01:56:16;3.40;;;1.70;;
75340;SDS011;64931;47.562;18.920;2023-07-30T01:58:42;4.20;;;1.90;;
75340;SDS011;64931;47.562;18.920;2023-07-30T02:01:07;3.80;;;1.90;;
75340;SDS011;64931;47.562;18.920;2023-07-30T02:03:33;3.50;;;1.90;;
75340;SDS011;64931;47.562;18.920;2023-07-30T02:05:59;3.50;;;1.70;;
75340;SDS011;64931;47.562;18.920;2023-07-30T02:08:24;3.30;;;1.60;;
75340;SDS011;64931;47.562;18.920;2023-07-30T02:10:56;3.50;;;1.60;;
75340;SDS011;64931;47.562;18.920;2023-07-30T02:13:22;4.20;;;1.80;;
75340;SDS011;64931;47.562;18.920;2023-07-30T02:15:48;3.50;;;1.90;;
75340;SDS011;64931;47.562;18.920;2023-07-30T02:18:13;3.80;;;1.70;;
75340;SDS011;64931;47.562;18.920;2023-07-30T02:20:39;3.00;;;1.60;;
75340;SDS011;64931;47.562;18.920;2023-07-30T02:23:04;4.70;;;2.00;;
75340;SDS011;64931;47.562;18.920;2023-07-30T02:25:29;3.60;;;1.70;;
75340;SDS011;64931;47.562;18.920;2023-07-30T02:27:56;2.90;;;1.60;;
75340;SDS011;64931;47.562;18.920;2023-07-30T02:30:22;3.50;;;1.80;;
75340;SDS011;64931;47.562;18.920;2023-07-30T02:32:47;4.40;;;1.60;;
75340;SDS011;64931;47.562;18.920;2023-07-30T02:35:12;3.20;;;1.50;;
75340;SDS011;64931;47.562;18.920;2023-07-30T02:37:38;3.10;;;1.60;;
75340;SDS011;64931;47.562;18.920;2023-07-30T02:40:03;3.70;;;1.90;;
75340;SDS011;64931;47.562;18.920;2023-07-30T02:42:30;3.30;;;1.90;;
75340;SDS011;64931;47.562;18.920;2023-07-30T02:44:56;3.50;;;1.90;;
75340;SDS011;64931;47.562;18.920;2023-07-30T02:47:21;3.60;;;1.80;;
75340;SDS011;64931;47.562;18.920;2023-07-30T02:49:47;3.70;;;1.70;;
75340;SDS011;64931;47.562;18.920;2023-07-30T02:52:12;4.10;;;1.90;;
75340;SDS011;64931;47.562;18.920;2023-07-30T02:54:38;3.40;;;1.70;;
75340;SDS011;64931;47.562;18.920;2023-07-30T02:57:03;4.00;;;1.80;;
75340;SDS011;64931;47.562;18.920;2023-07-30T02:59:29;4.70;;;1.90;;
75340;SDS011;64931;47.562;18.920;2023-07-30T03:01:54;3.50;;;2.00;;
75340;SDS011;64931;47.562;18.920;2023-07-30T03:04:19;3.60;;;1.70;;
75340;SDS011;64931;47.562;18.920;2023-07-30T03:06:45;3.90;;;1.70;;
75340;SDS011;64931;47.562;18.920;2023-07-30T03:09:10;3.30;;;1.90;;
75340;SDS011;64931;47.562;18.920;2023-07-30T03:11:36;3.40;;;1.70;;
75340;SDS011;64931;47.562;18.920;2023-07-30T03:14:01;4.20;;;1.80;;
75340;SDS011;64931;47.562;18.920;2023-07-30T03:16:26;3.20;;;1.60;;
75340;SDS011;64931;47.562;18.920;2023-07-30T03:18:52;3.90;;;2.00;;
75340;SDS011;64931;47.562;18.920;2023-07-30T03:21:17;3.40;;;2.00;;
75340;SDS011;64931;47.562;18.920;2023-07-30T03:23:43;4.10;;;2.00;;
75340;SDS011;64931;47.562;18.920;2023-07-30T03:26:09;3.70;;;1.90;;
75340;SDS011;64931;47.562;18.920;2023-07-30T03:28:35;3.30;;;1.80;;
75340;SDS011;64931;47.562;18.920;2023-07-30T03:31:01;4.40;;;1.90;;
75340;SDS011;64931;47.562;18.920;2023-07-30T03:33:26;5.20;;;1.90;;
75340;SDS011;64931;47.562;18.920;2023-07-30T03:35:52;3.20;;;1.80;;
75340;SDS011;64931;47.562;18.920;2023-07-30T03:38:17;3.40;;;1.90;;
75340;SDS011;64931;47.562;18.920;2023-07-30T03:40:42;4.00;;;2.10;;
75340;SDS011;64931;47.562;18.920;2023-07-30T03:43:08;4.80;;;1.90;;
75340;SDS011;64931;47.562;18.920;2023-07-30T03:45:33;3.80;;;2.10;;
75340;SDS011;64931;47.562;18.920;2023-07-30T03:47:58;4.10;;;1.90;;
75340;SDS011;64931;47.562;18.920;2023-07-30T03:50:24;3.40;;;1.90;;
75340;SDS011;64931;47.562;18.920;2023-07-30T03:52:49;3.50;;;1.80;;
75340;SDS011;64931;47.562;18.920;2023-07-30T03:55:15;5.10;;;1.80;;
75340;SDS011;64931;47.562;18.920;2023-07-30T03:57:40;4.00;;;1.90;;
75340;SDS011;64931;47.562;18.920;2023-07-30T04:00:06;3.40;;;1.80;;
75340;SDS011;64931;47.562;18.920;2023-07-30T04:02:32;3.50;;;2.00;;
75340;SDS011;64931;47.562;18.920;2023-07-30T04:05:00;3.50;;;2.10;;
75340;SDS011;64931;47.562;18.920;2023-07-30T04:07:26;3.60;;;1.90;;
75340;SDS011;64931;47.562;18.920;2023-07-30T04:09:51;4.70;;;1.90;;
75340;SDS011;64931;47.562;18.920;2023-07-30T04:12:16;4.00;;;1.90;;
75340;SDS011;64931;47.562;18.920;2023-07-30T04:14:42;3.10;;;1.90;;
75340;SDS011;64931;47.562;18.920;2023-07-30T04:17:08;4.30;;;2.20;;
75340;SDS011;64931;47.562;18.920;2023-07-30T04:19:33;4.20;;;1.90;;
75340;SDS011;64931;47.562;18.920;2023-07-30T04:21:58;3.80;;;2.00;;
75340;SDS011;64931;47.562;18.920;2023-07-30T04:24:24;5.40;;;2.10;;
75340;SDS011;64931;47.562;18.920;2023-07-30T04:26:51;3.20;;;2.00;;
75340;SDS011;64931;47.562;18.920;2023-07-30T04:29:16;3.20;;;1.90;;
75340;SDS011;64931;47.562;18.920;2023-07-30T04:31:41;3.70;;;2.00;;
75340;SDS011;64931;47.562;18.920;2023-07-30T04:34:07;3.70;;;1.90;;
75340;SDS011;64931;47.562;18.920;2023-07-30T04:36:32;3.80;;;2.10;;
75340;SDS011;64931;47.562;18.920;2023-07-30T04:38:57;4.20;;;2.10;;
75340;SDS011;64931;47.562;18.920;2023-07-30T04:41:23;4.60;;;2.20;;
75340;SDS011;64931;47.562;18.920;2023-07-30T04:43:48;3.90;;;2.00;;
75340;SDS011;64931;47.562;18.920;2023-07-30T04:46:14;3.90;;;1.90;;
75340;SDS011;64931;47.562;18.920;2023-07-30T04:48:40;4.40;;;1.90;;
75340;SDS011;64931;47.562;18.920;2023-07-30T04:51:05;3.80;;;2.00;;
75340;SDS011;64931;47.562;18.920;2023-07-30T04:53:31;3.90;;;2.30;;
75340;SDS011;64931;47.562;18.920;2023-07-30T04:55:56;4.70;;;1.90;;
75340;SDS011;64931;47.562;18.920;2023-07-30T04:58:23;4.40;;;2.20;;
75340;SDS011;64931;47.562;18.920;2023-07-30T05:00:48;4.00;;;1.70;;
75340;SDS011;64931;47.562;18.920;2023-07-30T05:03:14;3.30;;;1.90;;
75340;SDS011;64931;47.562;18.920;2023-07-30T05:05:39;4.10;;;2.20;;
75340;SDS011;64931;47.562;18.920;2023-07-30T05:08:05;4.40;;;2.10;;
75340;SDS011;64931;47.562;18.920;2023-07-30T05:10:31;3.70;;;2.10;;
75340;SDS011;64931;47.562;18.920;2023-07-30T05:12:56;3.90;;;2.20;;
75340;SDS011;64931;47.562;18.920;2023-07-30T05:15:21;4.00;;;2.20;;
75340;SDS011;64931;47.562;18.920;2023-07-30T05:17:47;4.10;;;2.20;;
75340;SDS011;64931;47.562;18.920;2023-07-30T05:20:12;3.40;;;2.00;;
75340;SDS011;64931;47.562;18.920;2023-07-30T05:22:38;4.20;;;2.00;;
75340;SDS011;64931;47.562;18.920;2023-07-30T05:25:03;4.00;;;2.10;;
75340;SDS011;64931;47.562;18.920;2023-07-30T05:27:29;4.00;;;2.10;;
75340;SDS011;64931;47.562;18.920;2023-07-30T05:29:56;3.10;;;2.00;;
75340;SDS011;64931;47.562;18.920;2023-07-30T05:32:21;4.50;;;2.20;;
75340;SDS011;64931;47.562;18.920;2023-07-30T05:34:47;3.40;;;2.00;;
75340;SDS011;64931;47.562;18.920;2023-07-30T05:37:12;6.10;;;2.10;;
75340;SDS011;64931;47.562;18.920;2023-07-30T05:39:38;3.60;;;2.00;;
75340;SDS011;64931;47.562;18.920;2023-07-30T05:42:03;6.00;;;2.20;;
75340;SDS011;64931;47.562;18.920;2023-07-30T05:44:29;4.10;;;2.00;;
75340;SDS011;64931;47.562;18.920;2023-07-30T05:46:54;4.70;;;2.30;;
75340;SDS011;64931;47.562;18.920;2023-07-30T05:49:19;5.70;;;2.40;;
75340;SDS011;64931;47.562;18.920;2023-07-30T05:51:45;3.70;;;2.10;;
75340;SDS011;64931;47.562;18.920;2023-07-30T05:54:11;4.80;;;2.00;;
75340;SDS011;64931;47.562;18.920;2023-07-30T05:56:37;4.30;;;2.20;;
75340;SDS011;64931;47.562;18.920;2023-07-30T05:59:02;3.80;;;2.20;;
75340;SDS011;64931;47.562;18.920;2023-07-30T06:01:28;4.00;;;2.40;;
75340;SDS011;64931;47.562;18.920;2023-07-30T06:03:53;3.40;;;1.70;;
75340;SDS011;64931;47.562;18.920;2023-07-30T06:06:18;4.00;;;2.30;;
75340;SDS011;64931;47.562;18.920;2023-07-30T06:08:51;3.90;;;2.20;;
75340;SDS011;64931;47.562;18.920;2023-07-30T06:11:17;5.40;;;2.20;;
75340;SDS011;64931;47.562;18.920;2023-07-30T06:13:43;4.00;;;2.20;;
75340;SDS011;64931;47.562;18.920;2023-07-30T06:16:09;4.50;;;2.10;;
75340;SDS011;64931;47.562;18.920;2023-07-30T06:18:34;5.00;;;2.30;;
75340;SDS011;64931;47.562;18.920;2023-07-30T06:21:00;3.90;;;2.10;;
75340;SDS011;64931;47.562;18.920;2023-07-30T06:23:25;4.20;;;2.20;;
75340;SDS011;64931;47.562;18.920;2023-07-30T06:25:51;3.90;;;2.20;;
75340;SDS011;64931;47.562;18.920;2023-07-30T06:28:16;4.40;;;2.20;;
75340;SDS011;64931;47.562;18.920;2023-07-30T06:30:41;3.60;;;2.10;;
75340;SDS011;64931;47.562;18.920;2023-07-30T06:33:07;4.60;;;2.50;;
75340;SDS011;64931;47.562;18.920;2023-07-30T06:35:32;4.00;;;2.30;;
75340;SDS011;64931;47.562;18.920;2023-07-30T06:37:57;4.10;;;2.10;;
75340;SDS011;64931;47.562;18.920;2023-07-30T06:40:23;4.90;;;2.50;;
75340;SDS011;64931;47.562;18.920;2023-07-30T06:42:48;4.70;;;2.20;;
75340;SDS011;64931;47.562;18.920;2023-07-30T06:45:13;3.70;;;2.20;;
75340;SDS011;64931;47.562;18.920;2023-07-30T06:47:39;3.90;;;2.00;;
75340;SDS011;64931;47.562;18.920;2023-07-30T06:50:04;4.40;;;2.10;;
75340;SDS011;64931;47.562;18.920;2023-07-30T06:52:33;4.90;;;2.00;;
75340;SDS011;64931;47.562;18.920;2023-07-30T06:54:59;3.70;;;2.20;;
75340;SDS011;64931;47.562;18.920;2023-07-30T06:57:25;4.80;;;2.30;;
75340;SDS011;64931;47.562;18.920;2023-07-30T06:59:50;3.70;;;2.10;;
75340;SDS011;64931;47.562;18.920;2023-07-30T07:02:15;4.10;;;2.00;;
75340;SDS011;64931;47.562;18.920;2023-07-30T07:04:41;6.90;;;2.50;;
75340;SDS011;64931;47.562;18.920;2023-07-30T07:07:06;4.00;;;2.20;;
75340;SDS011;64931;47.562;18.920;2023-07-30T07:09:31;3.70;;;1.90;;
75340;SDS011;64931;47.562;18.920;2023-07-30T07:11:57;3.60;;;1.90;;
75340;SDS011;64931;47.562;18.920;2023-07-30T07:14:24;4.10;;;2.10;;
75340;SDS011;64931;47.562;18.920;2023-07-30T07:16:49;4.10;;;2.10;;
75340;SDS011;64931;47.562;18.920;2023-07-30T07:19:14;5.90;;;2.30;;
75340;SDS011;64931;47.562;18.920;2023-07-30T07:21:40;5.50;;;2.70;;
75340;SDS011;64931;47.562;18.920;2023-07-30T07:24:05;3.30;;;2.00;;
75340;SDS011;64931;47.562;18.920;2023-07-30T07:26:31;5.20;;;2.80;;
75340;SDS011;64931;47.562;18.920;2023-07-30T07:28:56;3.80;;;2.20;;
75340;SDS011;64931;47.562;18.920;2023-07-30T07:31:21;3.80;;;2.40;;
75340;SDS011;64931;47.562;18.920;2023-07-30T07:33:47;4.80;;;2.60;;
75340;SDS011;64931;47.562;18.920;2023-07-30T07:36:12;5.00;;;2.50;;
75340;SDS011;64931;47.562;18.920;2023-07-30T07:38:39;5.20;;;2.70;;
75340;SDS011;64931;47.562;18.920;2023-07-30T07:41:04;5.30;;;2.50;;
75340;SDS011;64931;47.562;18.920;2023-07-30T07:43:30;4.70;;;2.70;;
75340;SDS011;64931;47.562;18.920;2023-07-30T07:45:55;4.80;;;3.10;;
75340;SDS011;64931;47.562;18.920;2023-07-30T07:48:21;4.70;;;2.70;;
75340;SDS011;64931;47.562;18.920;2023-07-30T07:50:46;6.50;;;2.70;;
75340;SDS011;64931;47.562;18.920;2023-07-30T07:53:11;4.50;;;2.90;;
75340;SDS011;64931;47.562;18.920;2023-07-30T07:55:37;4.80;;;2.90;;
75340;SDS011;64931;47.562;18.920;2023-07-30T07:58:02;5.60;;;2.90;;
75340;SDS011;64931;47.562;18.920;2023-07-30T08:00:28;6.80;;;3.00;;
75340;SDS011;64931;47.562;18.920;2023-07-30T08:02:54;4.80;;;2.90;;
75340;SDS011;64931;47.562;18.920;2023-07-30T08:05:19;4.60;;;2.80;;
75340;SDS011;64931;47.562;18.920;2023-07-30T08:07:47;4.90;;;2.80;;
75340;SDS011;64931;47.562;18.920;2023-07-30T08:10:13;5.60;;;2.80;;
75340;SDS011;64931;47.562;18.920;2023-07-30T08:12:38;5.00;;;2.80;;
75340;SDS011;64931;47.562;18.920;2023-07-30T08:15:04;5.40;;;3.10;;
75340;SDS011;64931;47.562;18.920;2023-07-30T08:17:30;4.90;;;2.80;;
75340;SDS011;64931;47.562;18.920;2023-07-30T08:19:55;5.00;;;2.60;;
75340;SDS011;64931;47.562;18.920;2023-07-30T08:22:21;6.10;;;3.20;;
75340;SDS011;64931;47.562;18.920;2023-07-30T08:24:46;6.40;;;2.80;;
75340;SDS011;64931;47.562;18.920;2023-07-30T08:27:11;6.60;;;3.00;;
75340;SDS011;64931;47.562;18.920;2023-07-30T08:29:37;8.50;;;3.40;;
75340;SDS011;64931;47.562;18.920;2023-07-30T08:32:02;5.90;;;2.90;;
75340;SDS011;64931;47.562;18.920;2023-07-30T08:34:28;4.80;;;2.60;;
75340;SDS011;64931;47.562;18.920;2023-07-30T08:36:53;5.30;;;2.50;;
75340;SDS011;64931;47.562;18.920;2023-07-30T08:39:18;4.40;;;2.40;;
75340;SDS011;64931;47.562;18.920;2023-07-30T08:41:44;4.50;;;2.30;;
75340;SDS011;64931;47.562;18.920;2023-07-30T08:44:10;5.20;;;2.40;;
75340;SDS011;64931;47.562;18.920;2023-07-30T08:46:36;4.80;;;2.60;;
75340;SDS011;64931;47.562;18.920;2023-07-30T08:49:01;4.40;;;2.50;;
75340;SDS011;64931;47.562;18.920;2023-07-30T08:51:26;5.50;;;2.50;;
75340;SDS011;64931;47.562;18.920;2023-07-30T08:53:52;4.90;;;2.60;;
75340;SDS011;64931;47.562;18.920;2023-07-30T08:56:18;5.10;;;2.50;;
75340;SDS011;64931;47.562;18.920;2023-07-30T08:58:44;5.40;;;2.80;;
75340;SDS011;64931;47.562;18.920;2023-07-30T09:01:11;4.50;;;2.50;;
75340;SDS011;64931;47.562;18.920;2023-07-30T09:03:38;4.10;;;2.40;;
75340;SDS011;64931;47.562;18.920;2023-07-30T09:06:04;4.40;;;2.50;;
75340;SDS011;64931;47.562;18.920;2023-07-30T09:08:30;4.80;;;2.70;;
75340;SDS011;64931;47.562;18.920;2023-07-30T09:10:57;4.00;;;2.20;;
75340;SDS011;64931;47.562;18.920;2023-07-30T09:13:35;3.90;;;2.40;;
75340;SDS011;64931;47.562;18.920;2023-07-30T09:16:10;4.00;;;2.40;;
75340;SDS011;64931;47.562;18.920;2023-07-30T09:18:40;4.70;;;2.50;;
75340;SDS011;64931;47.562;18.920;2023-07-30T09:21:10;4.10;;;2.50;;
75340;SDS011;64931;47.562;18.920;2023-07-30T09:23:44;5.70;;;3.10;;
75340;SDS011;64931;47.562;18.920;2023-07-30T09:26:11;7.10;;;2.80;;
75340;SDS011;64931;47.562;18.920;2023-07-30T09:28:37;5.90;;;3.10;;
75340;SDS011;64931;47.562;18.920;2023-07-30T09:31:03;4.90;;;2.80;;
75340;SDS011;64931;47.562;18.920;2023-07-30T09:33:30;5.80;;;3.00;;
75340;SDS011;64931;47.562;18.920;2023-07-30T09:35:57;5.00;;;2.90;;
75340;SDS011;64931;47.562;18.920;2023-07-30T09:38:22;7.90;;;3.10;;
75340;SDS011;64931;47.562;18.920;2023-07-30T09:40:48;5.90;;;3.00;;
75340;SDS011;64931;47.562;18.920;2023-07-30T09:43:14;4.80;;;2.70;;
75340;SDS011;64931;47.562;18.920;2023-07-30T09:45:43;4.70;;;3.20;;
75340;SDS011;64931;47.562;18.920;2023-07-30T09:48:09;4.00;;;2.60;;
75340;SDS011;64931;47.562;18.920;2023-07-30T09:50:41;4.10;;;2.40;;
75340;SDS011;64931;47.562;18.920;2023-07-30T09:53:07;5.10;;;2.60;;
75340;SDS011;64931;47.562;18.920;2023-07-30T09:55:34;3.90;;;2.40;;
75340;SDS011;64931;47.562;18.920;2023-07-30T09:57:59;5.30;;;2.40;;
75340;SDS011;64931;47.562;18.920;2023-07-30T10:00:25;4.10;;;2.30;;
75340;SDS011;64931;47.562;18.920;2023-07-30T10:02:51;4.30;;;2.40;;
75340;SDS011;64931;47.562;18.920;2023-07-30T10:05:18;4.30;;;2.50;;
75340;SDS011;64931;47.562;18.920;2023-07-30T10:10:28;4.20;;;2.30;;
75340;SDS011;64931;47.562;18.920;2023-07-30T10:12:55;4.10;;;2.10;;
75340;SDS011;64931;47.562;18.920;2023-07-30T10:15:21;3.90;;;2.20;;
75340;SDS011;64931;47.562;18.920;2023-07-30T10:17:48;4.30;;;2.40;;
75340;SDS011;64931;47.562;18.920;2023-07-30T10:20:26;3.90;;;2.40;;
75340;SDS011;64931;47.562;18.920;2023-07-30T10:22:54;3.70;;;2.10;;
75340;SDS011;64931;47.562;18.920;2023-07-30T10:25:22;4.40;;;2.40;;
75340;SDS011;64931;47.562;18.920;2023-07-30T10:28:11;5.30;;;2.60;;
75340;SDS011;64931;47.562;18.920;2023-07-30T10:30:55;3.90;;;2.40;;
75340;SDS011;64931;47.562;18.920;2023-07-30T10:33:22;5.00;;;2.80;;
75340;SDS011;64931;47.562;18.920;2023-07-30T10:35:47;4.20;;;2.70;;
75340;SDS011;64931;47.562;18.920;2023-07-30T10:38:16;3.60;;;2.40;;
75340;SDS011;64931;47.562;18.920;2023-07-30T10:43:48;4.70;;;2.90;;
75340;SDS011;64931;47.562;18.920;2023-07-30T10:46:16;4.40;;;2.80;;
75340;SDS011;64931;47.562;18.920;2023-07-30T10:48:44;4.70;;;3.00;;
75340;SDS011;64931;47.562;18.920;2023-07-30T10:51:12;5.60;;;2.70;;
75340;SDS011;64931;47.562;18.920;2023-07-30T10:53:38;5.00;;;3.30;;
75340;SDS011;64931;47.562;18.920;2023-07-30T10:56:07;5.20;;;3.10;;
75340;SDS011;64931;47.562;18.920;2023-07-30T10:58:33;4.70;;;2.80;;
75340;SDS011;64931;47.562;18.920;2023-07-30T11:01:03;4.10;;;2.70;;
75340;SDS011;64931;47.562;18.920;2023-07-30T11:10:46;5.10;;;3.20;;
75340;SDS011;64931;47.562;18.920;2023-07-30T11:13:14;5.70;;;3.40;;
75340;SDS011;64931;47.562;18.920;2023-07-30T11:19:24;4.60;;;3.20;;
75340;SDS011;64931;47.562;18.920;2023-07-30T11:21:54;4.40;;;3.10;;
75340;SDS011;64931;47.562;18.920;2023-07-30T11:24:22;5.10;;;3.20;;
75340;SDS011;64931;47.562;18.920;2023-07-30T11:29:24;4.60;;;3.30;;
75340;SDS011;64931;47.562;18.920;2023-07-30T11:31:50;5.80;;;3.70;;
75340;SDS011;64931;47.562;18.920;2023-07-30T11:34:15;5.20;;;3.70;;
75340;SDS011;64931;47.562;18.920;2023-07-30T11:36:43;5.50;;;4.20;;
75340;SDS011;64931;47.562;18.920;2023-07-30T11:39:09;6.70;;;4.70;;
75340;SDS011;64931;47.562;18.920;2023-07-30T11:41:35;5.60;;;4.40;;
75340;SDS011;64931;47.562;18.920;2023-07-30T11:44:00;7.70;;;4.80;;
75340;SDS011;64931;47.562;18.920;2023-07-30T11:46:26;5.50;;;4.30;;
75340;SDS011;64931;47.562;18.920;2023-07-30T11:48:52;5.50;;;4.40;;
75340;SDS011;64931;47.562;18.920;2023-07-30T11:51:23;5.90;;;4.80;;
75340;SDS011;64931;47.562;18.920;2023-07-30T11:56:23;6.00;;;4.40;;
75340;SDS011;64931;47.562;18.920;2023-07-30T11:58:56;6.30;;;4.20;;
75340;SDS011;64931;47.562;18.920;2023-07-30T12:01:29;5.50;;;4.40;;
75340;SDS011;64931;47.562;18.920;2023-07-30T12:03:56;5.90;;;4.50;;
75340;SDS011;64931;47.562;18.920;2023-07-30T12:06:22;6.60;;;4.20;;
75340;SDS011;64931;47.562;18.920;2023-07-30T12:08:53;5.80;;;4.10;;
75340;SDS011;64931;47.562;18.920;2023-07-30T12:11:19;5.30;;;3.60;;
75340;SDS011;64931;47.562;18.920;2023-07-30T12:13:47;4.40;;;2.90;;
75340;SDS011;64931;47.562;18.920;2023-07-30T12:16:16;5.20;;;3.50;;
75340;SDS011;64931;47.562;18.920;2023-07-30T12:18:41;4.90;;;3.20;;
75340;SDS011;64931;47.562;18.920;2023-07-30T12:21:07;4.60;;;3.10;;
75340;SDS011;64931;47.562;18.920;2023-07-30T12:23:33;5.10;;;3.40;;
75340;SDS011;64931;47.562;18.920;2023-07-30T12:25:59;4.90;;;3.10;;
75340;SDS011;64931;47.562;18.920;2023-07-30T12:28:28;5.00;;;3.10;;
75340;SDS011;64931;47.562;18.920;2023-07-30T12:30:53;4.50;;;2.70;;
75340;SDS011;64931;47.562;18.920;2023-07-30T12:33:18;4.30;;;2.50;;
75340;SDS011;64931;47.562;18.920;2023-07-30T12:35:44;4.60;;;2.90;;
75340;SDS011;64931;47.562;18.920;2023-07-30T12:38:09;3.80;;;2.60;;
75340;SDS011;64931;47.562;18.920;2023-07-30T12:40:34;4.80;;;2.60;;
75340;SDS011;64931;47.562;18.920;2023-07-30T12:43:04;4.60;;;2.50;;
75340;SDS011;64931;47.562;18.920;2023-07-30T12:45:29;4.20;;;2.40;;
75340;SDS011;64931;47.562;18.920;2023-07-30T12:47:58;4.00;;;2.30;;
75340;SDS011;64931;47.562;18.920;2023-07-30T12:50:26;4.60;;;2.50;;
75340;SDS011;64931;47.562;18.920;2023-07-30T12:52:52;6.20;;;2.60;;
75340;SDS011;64931;47.562;18.920;2023-07-30T12:55:18;4.40;;;2.60;;
75340;SDS011;64931;47.562;18.920;2023-07-30T12:57:47;5.30;;;2.90;;
75340;SDS011;64931;47.562;18.920;2023-07-30T13:00:12;4.30;;;2.70;;
75340;SDS011;64931;47.562;18.920;2023-07-30T13:02:38;5.90;;;2.50;;
75340;SDS011;64931;47.562;18.920;2023-07-30T13:05:03;4.10;;;2.40;;
75340;SDS011;64931;47.562;18.920;2023-07-30T13:07:29;6.50;;;2.50;;
75340;SDS011;64931;47.562;18.920;2023-07-30T13:12:47;3.90;;;2.40;;
75340;SDS011;64931;47.562;18.920;2023-07-30T13:15:12;5.10;;;2.60;;
75340;SDS011;64931;47.562;18.920;2023-07-30T13:17:38;4.00;;;2.70;;
75340;SDS011;64931;47.562;18.920;2023-07-30T13:20:04;5.20;;;3.20;;
75340;SDS011;64931;47.562;18.920;2023-07-30T13:22:30;4.80;;;3.00;;
75340;SDS011;64931;47.562;18.920;2023-07-30T13:24:55;4.50;;;2.90;;
75340;SDS011;64931;47.562;18.920;2023-07-30T13:27:21;4.40;;;3.20;;
75340;SDS011;64931;47.562;18.920;2023-07-30T13:29:46;4.90;;;3.50;;
75340;SDS011;64931;47.562;18.920;2023-07-30T13:32:13;5.50;;;3.80;;
75340;SDS011;64931;47.562;18.920;2023-07-30T13:34:39;5.20;;;3.60;;
75340;SDS011;64931;47.562;18.920;2023-07-30T13:37:04;4.90;;;3.60;;
75340;SDS011;64931;47.562;18.920;2023-07-30T13:39:30;4.80;;;3.50;;
75340;SDS011;64931;47.562;18.920;2023-07-30T13:41:55;4.60;;;3.70;;
75340;SDS011;64931;47.562;18.920;2023-07-30T13:44:20;3.80;;;2.70;;
75340;SDS011;64931;47.562;18.920;2023-07-30T13:46:46;4.30;;;2.70;;
75340;SDS011;64931;47.562;18.920;2023-07-30T13:49:11;4.40;;;3.00;;
75340;SDS011;64931;47.562;18.920;2023-07-30T13:51:37;3.90;;;2.80;;
75340;SDS011;64931;47.562;18.920;2023-07-30T13:54:02;4.00;;;2.70;;
75340;SDS011;64931;47.562;18.920;2023-07-30T13:56:28;3.80;;;2.60;;
75340;SDS011;64931;47.562;18.920;2023-07-30T13:58:54;4.10;;;2.60;;
75340;SDS011;64931;47.562;18.920;2023-07-30T14:01:20;3.90;;;2.90;;
75340;SDS011;64931;47.562;18.920;2023-07-30T14:03:46;4.60;;;2.90;;
75340;SDS011;64931;47.562;18.920;2023-07-30T14:06:12;4.50;;;2.90;;
75340;SDS011;64931;47.562;18.920;2023-07-30T14:08:38;4.80;;;2.80;;
75340;SDS011;64931;47.562;18.920;2023-07-30T14:11:03;5.30;;;2.90;;
75340;SDS011;64931;47.562;18.920;2023-07-30T14:13:29;5.10;;;2.60;;
75340;SDS011;64931;47.562;18.920;2023-07-30T14:15:54;4.10;;;2.30;;
75340;SDS011;64931;47.562;18.920;2023-07-30T14:18:19;5.10;;;2.20;;
75340;SDS011;64931;47.562;18.920;2023-07-30T14:20:45;3.90;;;2.20;;
75340;SDS011;64931;47.562;18.920;2023-07-30T14:23:10;3.70;;;1.90;;
75340;SDS011;64931;47.562;18.920;2023-07-30T14:25:36;4.60;;;2.30;;
75340;SDS011;64931;47.562;18.920;2023-07-30T14:28:02;3.10;;;1.80;;
75340;SDS011;64931;47.562;18.920;2023-07-30T14:30:29;3.70;;;2.20;;
75340;SDS011;64931;47.562;18.920;2023-07-30T14:32:54;3.60;;;1.90;;
75340;SDS011;64931;47.562;18.920;2023-07-30T14:35:19;3.60;;;2.00;;
75340;SDS011;64931;47.562;18.920;2023-07-30T14:37:45;4.20;;;2.00;;
75340;SDS011;64931;47.562;18.920;2023-07-30T14:40:10;3.60;;;2.00;;
75340;SDS011;64931;47.562;18.920;2023-07-30T14:42:36;3.80;;;2.10;;
75340;SDS011;64931;47.562;18.920;2023-07-30T14:45:01;3.80;;;1.90;;
75340;SDS011;64931;47.562;18.920;2023-07-30T14:47:27;3.50;;;2.00;;
75340;SDS011;64931;47.562;18.920;2023-07-30T14:49:52;3.20;;;1.90;;
75340;SDS011;64931;47.562;18.920;2023-07-30T14:52:18;4.40;;;1.90;;